map of MMJ home
MMJ - Airport
Location
City:  Matsumoto, Nagano, Japan
Name:Matsumoto Airport
ICAO:RJAF
IATA:MMJ

Details
Type:Airport (Aerodrome, Airfield)
Latitude:3610'00"N (36.166758)
Longitude:13755'22"E (137.922669)
Datum:WGS 1984
Elevation:2182 ft (665 m)
Variation:7.94W (WMM2015 magnetic declination)
-0.06 annual change
Runways:1
Longest:6560 × 150 ft (1999 × 45.5 m), paved

Time
Time Zone:UTC+9
Local Time:

Weather
METAR:RJAF 160700Z 35011KT 9999 VCSH SCT030 00/M05 Q1012

Related Locations
Nearby:
Farthest:SSMT: 11823 mi / 19027 km
Mostardas, RS, BR

Find:

   beyond  
but within

Other Information
Maps:
NOTAMs:
Links:
Sources:

  
  • flag of Japan
  • flag of Nagano
  

Sectional Chart

Flight Planning
at skyvector.com

Satellite Image

Google Maps Satellite view

 

Copyright © 2004-2019 Karl L. Swartz. All rights reserved.
The Great Circle Mapper name and logo are trademarks of the Great Circle Mapper.
All other trademarks mentioned herein belong to their respective owners.
Please see credits for attibutions and further copyright information.

  Follow gcmap on Facebook Follow gcmap on Twitter Follow gcmap on Google+ GCmap on LinkedIn

hCard Microformat

Geo Microformat